Boeing 737-800 утонул в Микронезии

Boeing 737-8BKWL авиакомпании Air Niugini (PX) в пятницу, 28 сентября, совершил посадку на воду при попытке приземления в международном аэропорту Чуук (TKK) города Вено в Микронезии. Самолёт оказался в лагуне примерно в 145 метрах от берега.

Все 35 пассажиров и 12 членов экипажа эвакуированы без значительных повреждений.

Инцидент произошёл в 10:10 по местному времени.

Подробности

Рейс PX73 отправился из Понпеи (PNI), Микронезия, в свой домашний аэропорт Джексон (POM) столицы Папуа-Новой Гвинеи Порт-Морсби. В пути была запланирована промежуточная остановка в Вено.

Самолёт заходил на полосу 04 в дождь: нижняя граница кучево-дождевых облаков располагалась на 250… 300 метрах. Не долетев до полосы, он упал в воду. По рассказам пассажиров, они думали, что совершили жёсткое приземление и не сразу поняли, что оказались в воде.

Авиалайнер держался на поверхности достаточно долго, чтобы всех находившихся на его борту смогли эвакуировать местные жители на своих лодках.

ВПП 04/22 в аэропорту Чуук находится на высоте 3 метров над уровнем моря и имеет асфальтовое покрытие длиной 1 831 метр. Кроме Air Niugini, регулярные рейсы в него совершает американская United Airlines (UA) из Гонолулу (HNL) и Гуама (GUM).

Безопасная Микронезия

С 1980 года инцидент в Вено Чуук четвёртый в аэропортах Микронезии. За всё это время летальных исходов в них не зафиксировано.

В истории Air Niugini это шестой инцидент с повреждением самолёта. Но человеческих жизней авиакомпания никогда не теряла.

Самолёт до инцидента

Авиалайнер был выпущен в Рентоне, штат Вашингтон, и в апреле 2005 года был поставлен первому пользователю — индийской Air India Express (IX), дочернему лоукостеру национального перевозчика Индии.

В июле 2010 года самолёт перешёл индийской же авиакомпании Jet Airways (9W), а в сентябре 2013 года его арендовала Air Niugini.

Момент инцидента ему было 13,5 лет.

Boeing 737-8BKWL авиакомпании Air Niugini в аэропорту Сидней имени Кингсфорда Смита (SYD)
Boeing 737-8BKWL авиакомпании Air Niugini в аэропорту Сидней имени Кингсфорда Смита (SYD) за четыре года до инцидента на рейсе PX73
Место инцидента на рейсе PX73 в аэропорту Чуук (TKK) города Вено в Микронезии
Место инцидента на рейсе PX73 в аэропорту Чуук (TKK) города Вено в Микронезии

Точные погодные данные

22:50 UTC/08:50 местного времени:
PTKK 272250Z VRB05KT 14SM SCT012CB BKN120 OVC280 26/25 A2973 RMK CB ALQDS SLP071 T02610246

23:40 UTC/09:40 местного времени:
PTKK 272340Z 04007KT 3SM SHRA BKN000 OVC008CB 26/25 A2973 RA BKN000 CB ALQDS MOV SW

23:55 UTC/09:55 местного времени:
PTKK 282355Z 04007KT 3SM SHRA BKN000 OVC008CB 26/25 A2973 RMK CB ALQDS MOV SW SLP071 60186 8/3// T02610250 10261 20250 52015

00:02 UTC/10:02 местного времени:
PTKK 280002Z VRB05KT 12SM -SHRA SCT010CB BKN110 OVC280 26/25 A2973 RMK CB ALQDS

00:51 UTC/10:51 местного времени:
PTKK 280051Z 18008KT 14SM SCT012CB BKN120 OVC280 27/26 A2972 RMK SHRAE20 CB ALQDS MOV N SLP066 T02670256

Ещё на эту тему

Triumph получил контракт на все CFM56-7B Америки Triumph получил пятилетний контракт на техобслуживание и ремонт (maintenance, repair and overhaul; MRO) компонентов мотогондол CFM56-7B, используемых операторами Соединённых Штатов. Двигатели этой модификации установлены на Boeing 737 поколени...
Сентябрьская скорость поставок Boeing — 2,9 самолётов в сутки За сентябрь 2018 года Boeing поставил клиентам: 31 авиакомпании и 8 лизингодателям - 86 коммерческих самолётов. То есть, со скоростью 2,9 единиц в сутки. Американский производитель показал серьёзный рост темпов производства. В июле было поставлено...
Сервисный бюллетень и директивы о CFM56-7B: лопасти вентиляторов проверят ультразвуком... CFM International, совместное предприятие американского производителя двигателей GE и французского Safran, 20 апреля выпустило служебный бюллетень для операторов силовых установок CFM56-7B, приводящих Boeing 737 Next Generation (737-600/-700/-800/-90...
Разрушение в полёте двигателя у Boeing 737-700 привело к смерти пассажира Boeing 737-700 авиакомпании Southwest Airlines (WN) был вынужден совершить аварийную посадку вскоре после вылета из Нью-Йорка ввиду разрушения двигателя. Один пассажир умер после госпитализации - предположительно, от ранений осколками, пробившими ...
Станет ли Boeing разменной монетой в торговой войне США и Китая Китайское министерство торговли объявило во вторник, 4 апреля, что в ответ на протекционистские меры администрации президента США рассматривает возможность введения 25%-ных пошлин на ввоз некоторых видов американской продукции. Объявление последовало...
Алроса заменит Ту-134Б и Ту-154 на Boeing 737-700 Авиакомпания Алроса (6R) до конца апреля собирается взять в лизинг ещё один Boeing 737-700, что позволит вывести из эксплуатации старые Ту-134Б и Ту-154М. Первый 737-700 был введён в эксплуатацию в конце марта этого года и используется на внутренн...
SAS в шаге от замены Boeing на Airbus Авиакомпания SAS Scandinavian Airlines (SK) согласует финальные подробности сделки с Airbus. A320neo может начать год с очередной победы над 737 MAX По сообщению Reuters, речь идёт о приобретении от 40 до 50 узкофюзеляжных самолётов. Агентство прив...
Ethiopian расширяет свой грузовой флот Компания Ethiopian Cargo and Logistics Services в начале января подписала соглашение с американской лизинговой компанией GECAS на аренду первых двух самолётов Boeing 737-800SF, которые будут конвертированы из пассажирских авиалайнеров в Майами на пре...
Boeing 737-800 спустился к морю в Трабзоне Boeing 737-82RWL авиакомпании Pegasus Airlines (H9) перебежал полосу во время посадки в аэропорту Трабзона. Из находившихся на борту 6 членов экипажа и 162 пассажиров никто серьёзно не пострадал. Авиалайнер (прибыл в Pegasus напрямую от производит...
Boeing 737-800 соскользнул с полосы при посадке Boeing 737-8H6WL авиакомпании Malaysia Airlines (MH), выполнявший внутренний рейс MH2718 из Куала-Лумпура (KUL), соскользнул с полосы при посадке в аэропорту Сибу (SBW). Самолёт приземлился на взлетно-посадочной полосе Сибу 13/31 под сильным дождё...
Boeing 737 столкнулся с дроном Boeing 737-752WL авиакомпании LAM Linhas Aéreas de Moçambique с повреждённым носовым обтекателем в аэропорту города Тете Boeing 737-752WL авиакомпании LAM Linhas Aereas de Mocambique (TM) 5 января столкнулся с беспилотным летательным аппаратом пр...
Boeing 737-800 в Гоа выкатился на траву Boeing 737-85RWL индийской авиакомпании Jet Airways (9W) выкатился на траву при вылете из аэропорта Даболим, Гоа (GOI), в Мумбаи (BOM). В 04:49 по местному времени самолёт выехал на взлётно-посадочную полосу, развернулся для подготовки к разбегу, ...